createdAt,value
2018-12-07T00:01:52.765Z,100356.92
2018-12-07T00:04:22.052Z,100356.38
2018-12-07T00:06:51.308Z,100349.48
2018-12-07T00:09:20.532Z,100334.02
2018-12-07T00:11:49.785Z,100335.73
2018-12-07T00:14:19.040Z,100329.31
2018-12-07T00:16:48.293Z,100335.02
2018-12-07T00:19:17.513Z,100334.59
2018-12-07T00:21:46.717Z,100334.39
2018-12-07T00:24:16.145Z,100327.25
2018-12-07T00:26:45.376Z,100321.67
2018-12-07T00:29:15.361Z,100320.02
2018-12-07T00:31:44.596Z,100319.87
2018-12-07T00:34:14.653Z,100323.90
2018-12-07T00:36:43.847Z,100318.84
2018-12-07T00:39:13.699Z,100321.43
2018-12-07T00:41:42.869Z,100316.82
2018-12-07T00:44:12.298Z,100316.62
2018-12-07T00:46:41.520Z,100318.79
2018-12-07T00:49:10.756Z,100305.45
2018-12-07T00:51:40.043Z,100304.52
2018-12-07T00:54:09.288Z,100298.89
2018-12-07T00:56:38.506Z,100299.97
2018-12-07T00:59:07.822Z,100295.17
2018-12-07T01:01:37.105Z,100291.30
2018-12-07T01:04:06.329Z,100290.11
2018-12-07T01:06:35.527Z,100294.44
2018-12-07T01:09:05.137Z,100296.05
2018-12-07T01:11:34.344Z,100292.48
2018-12-07T01:14:03.697Z,100287.30
2018-12-07T01:16:32.947Z,100289.16
2018-12-07T01:19:02.133Z,100288.23
2018-12-07T01:21:31.397Z,100289.62
2018-12-07T01:24:00.725Z,100283.39
2018-12-07T01:26:29.956Z,100277.70
2018-12-07T01:28:59.131Z,100280.17
2018-12-07T01:31:28.409Z,100282.91
2018-12-07T01:33:57.608Z,100277.17
2018-12-07T01:36:26.847Z,100277.84
2018-12-07T01:38:56.043Z,100275.42
2018-12-07T01:41:25.267Z,100274.38
2018-12-07T01:43:54.553Z,100272.64
2018-12-07T01:46:23.764Z,100270.87
2018-12-07T01:48:52.978Z,100274.08
2018-12-07T01:51:22.237Z,100268.24
2018-12-07T01:53:51.515Z,100265.09
2018-12-07T01:56:20.767Z,100266.73
2018-12-07T01:58:49.929Z,100262.50
2018-12-07T02:01:19.232Z,100251.80
2018-12-07T02:03:48.522Z,100255.31
2018-12-07T02:06:17.797Z,100251.49
2018-12-07T02:08:47.004Z,100253.91
2018-12-07T02:11:16.941Z,100246.84
2018-12-07T02:13:46.250Z,100247.19
2018-12-07T02:16:15.995Z,100241.09
2018-12-07T02:18:45.236Z,100232.98
2018-12-07T02:21:14.956Z,100227.09
2018-12-07T02:23:44.407Z,100220.58
2018-12-07T02:26:14.471Z,100211.92
2018-12-07T02:28:43.697Z,100204.55
2018-12-07T02:31:13.627Z,100203.93
2018-12-07T02:33:42.873Z,100202.45
2018-12-07T02:36:12.279Z,100200.48
2018-12-07T02:38:41.473Z,100199.97
2018-12-07T02:41:10.707Z,100188.18
2018-12-07T02:43:40.104Z,100194.80
2018-12-07T02:46:09.301Z,100190.56
2018-12-07T02:48:38.528Z,100174.53
2018-12-07T02:51:08.250Z,100185.49
2018-12-07T02:53:37.534Z,100187.73
2018-12-07T02:56:06.805Z,100184.77
2018-12-07T02:58:36.085Z,100185.63
2018-12-07T03:01:05.637Z,100185.02
2018-12-07T03:03:35.146Z,100190.88
2018-12-07T03:06:04.355Z,100178.67
2018-12-07T03:08:33.605Z,100178.70
2018-12-07T03:11:03.574Z,100174.60
2018-12-07T03:13:32.968Z,100167.80
2018-12-07T03:16:02.500Z,100163.33
2018-12-07T03:18:32.493Z,100161.27
2018-12-07T03:21:01.728Z,100150.61
2018-12-07T03:23:31.062Z,100144.07
2018-12-07T03:26:00.249Z,100149.97
2018-12-07T03:28:29.453Z,100148.03
2018-12-07T03:30:58.713Z,100141.72
2018-12-07T03:33:27.954Z,100139.86
2018-12-07T03:35:57.161Z,100146.06
2018-12-07T03:38:26.450Z,100137.55
2018-12-07T03:40:55.726Z,100139.03
2018-12-07T03:43:24.926Z,100137.88
2018-12-07T03:45:54.116Z,100138.28
2018-12-07T03:48:23.347Z,100144.48
2018-12-07T03:50:52.638Z,100143.06
2018-12-07T03:53:21.908Z,100142.03
2018-12-07T03:55:51.229Z,100135.39
2018-12-07T03:58:20.536Z,100136.66
2018-12-07T04:00:50.048Z,100133.14
2018-12-07T04:03:19.296Z,100130.53
2018-12-07T04:05:49.707Z,100126.29
2018-12-07T04:08:18.971Z,100127.97
2018-12-07T04:10:49.500Z,100117.02
2018-12-07T04:13:19.377Z,100115.98
2018-12-07T04:15:48.627Z,100120.08
2018-12-07T04:18:17.805Z,100119.88
2018-12-07T04:20:47.222Z,100118.64
2018-12-07T04:23:16.758Z,100108.84
2018-12-07T04:25:45.975Z,100119.59
2018-12-07T04:28:15.781Z,100123.81
2018-12-07T04:30:45.404Z,100110.37
2018-12-07T04:33:14.954Z,100113.57
2018-12-07T04:35:44.160Z,100106.02
2018-12-07T04:38:13.955Z,100111.30
2018-12-07T04:40:43.169Z,100105.92
2018-12-07T04:43:12.780Z,100104.80
2018-12-07T04:45:41.942Z,100106.96
2018-12-07T04:48:11.179Z,100105.44
2018-12-07T04:50:40.442Z,100097.14
2018-12-07T04:53:09.721Z,100100.86
2018-12-07T04:55:38.955Z,100099.39
2018-12-07T04:58:08.269Z,100099.09
2018-12-07T05:00:37.586Z,100098.48
2018-12-07T05:03:06.873Z,100089.98
2018-12-07T05:05:36.227Z,100092.86
2018-12-07T05:08:05.430Z,100086.70
2018-12-07T05:10:34.661Z,100083.32
2018-12-07T05:13:03.894Z,100085.36
2018-12-07T05:15:33.211Z,100084.02
2018-12-07T05:18:02.424Z,100079.78
2018-12-07T05:20:31.628Z,100073.06
2018-12-07T05:23:00.901Z,100064.70
2018-12-07T05:25:30.106Z,100071.69
2018-12-07T05:27:59.374Z,100066.42
2018-12-07T05:30:29.254Z,100066.11
2018-12-07T05:32:58.495Z,100065.18
2018-12-07T05:35:27.749Z,100064.97
2018-12-07T05:37:57.001Z,100070.14
2018-12-07T05:40:26.284Z,100060.53
2018-12-07T05:42:56.028Z,100060.42
2018-12-07T05:45:25.220Z,100060.12
2018-12-07T05:47:54.531Z,100063.04
2018-12-07T05:50:23.953Z,100056.19
2018-12-07T05:52:53.701Z,100052.16
2018-12-07T05:55:23.230Z,100048.93
2018-12-07T05:57:52.564Z,100048.86
2018-12-07T06:00:22.105Z,100046.58
2018-12-07T06:02:52.715Z,100048.59
2018-12-07T06:05:21.930Z,100042.22
2018-12-07T06:07:51.169Z,100046.34
2018-12-07T06:10:20.425Z,100048.44
2018-12-07T06:12:49.672Z,100050.00
2018-12-07T06:15:19.331Z,100042.34
2018-12-07T06:17:48.598Z,100044.55
2018-12-07T06:20:18.190Z,100040.98
2018-12-07T06:22:47.369Z,100046.69
2018-12-07T06:25:18.610Z,100051.72
2018-12-07T06:27:47.865Z,100043.35
2018-12-07T06:30:17.626Z,100040.87
2018-12-07T06:32:46.839Z,100037.88
2018-12-07T06:35:17.074Z,100031.37
2018-12-07T06:37:46.329Z,100030.44
2018-12-07T06:40:17.263Z,100025.38
2018-12-07T06:42:46.526Z,100030.23
2018-12-07T06:45:15.793Z,100033.54
2018-12-07T06:47:45.040Z,100031.89
2018-12-07T06:50:14.399Z,100029.69
2018-12-07T06:52:43.629Z,100026.52
2018-12-07T06:55:14.520Z,100023.59
2018-12-07T06:57:43.712Z,100023.49
2018-12-07T07:00:13.757Z,100024.01
2018-12-07T07:02:43.030Z,100022.70
2018-12-07T07:05:13.478Z,100023.00
2018-12-07T07:07:42.761Z,100020.67
2018-12-07T07:10:12.836Z,100027.16
2018-12-07T07:12:42.080Z,100021.55
2018-12-07T07:15:12.837Z,100026.03
2018-12-07T07:17:42.054Z,100020.22
2018-12-07T07:20:11.969Z,100025.90
2018-12-07T07:22:41.228Z,100022.15
2018-12-07T07:25:13.180Z,100022.66
2018-12-07T07:27:42.506Z,100015.33
2018-12-07T07:30:12.573Z,100010.34
2018-12-07T07:32:41.757Z,100006.77
2018-12-07T07:35:11.625Z,100000.84
2018-12-07T07:37:41.793Z,99999.57
2018-12-07T07:40:12.442Z,99990.14
2018-12-07T07:42:41.650Z,99992.72
2018-12-07T07:45:12.774Z,99989.55
2018-12-07T07:47:41.995Z,99987.38
2018-12-07T07:50:12.051Z,99981.27
2018-12-07T07:52:41.259Z,99976.65
2018-12-07T07:55:11.837Z,99968.19
2018-12-07T07:57:41.129Z,99964.44
2018-12-07T08:00:11.287Z,99962.98
2018-12-07T08:02:40.576Z,99948.53
2018-12-07T08:05:10.406Z,99943.80
2018-12-07T08:07:39.599Z,99942.24
2018-12-07T08:10:09.652Z,99939.69
2018-12-07T08:12:38.889Z,99937.63
2018-12-07T08:15:08.551Z,99938.86
2018-12-07T08:17:38.293Z,99928.92
2018-12-07T08:20:07.627Z,99919.92
2018-12-07T08:22:37.030Z,99917.78
2018-12-07T08:25:06.472Z,99910.77
2018-12-07T08:27:35.677Z,99903.48
2018-12-07T08:30:06.549Z,99904.55
2018-12-07T08:32:35.761Z,99912.20
2018-12-07T08:35:06.293Z,99908.80
2018-12-07T08:37:35.813Z,99903.49
2018-12-07T08:40:06.578Z,99905.39
2018-12-07T08:42:36.446Z,99901.53
2018-12-07T08:45:07.215Z,99896.36
2018-12-07T08:47:36.470Z,99891.93
2018-12-07T08:50:06.893Z,99894.72
2018-12-07T08:52:36.127Z,99889.34
2018-12-07T08:55:05.484Z,99876.66
2018-12-07T08:57:34.666Z,99881.20
2018-12-07T09:00:03.946Z,99867.25
2018-12-07T09:02:33.178Z,99870.66
2018-12-07T09:05:02.412Z,99858.86
2018-12-07T09:07:32.783Z,99861.25
2018-12-07T09:10:01.989Z,99850.89
2018-12-07T09:12:31.278Z,99848.23
2018-12-07T09:15:00.475Z,99849.45
2018-12-07T09:17:29.748Z,99849.03
2018-12-07T09:19:58.912Z,99849.33
2018-12-07T09:22:28.136Z,99844.34
2018-12-07T09:24:57.404Z,99823.88
2018-12-07T09:27:26.701Z,99828.20
2018-12-07T09:29:55.901Z,99825.61
2018-12-07T09:32:25.147Z,99821.02
2018-12-07T09:34:54.353Z,99817.03
2018-12-07T09:37:23.596Z,99820.53
2018-12-07T09:39:52.814Z,99821.96
2018-12-07T09:42:22.078Z,99812.61
2018-12-07T09:44:51.277Z,99814.64
2018-12-07T09:47:20.493Z,99823.06
2018-12-07T09:49:49.802Z,99809.45
2018-12-07T09:52:19.051Z,99811.48
2018-12-07T09:54:48.285Z,99801.55
2018-12-07T09:57:17.484Z,99802.83
2018-12-07T09:59:46.697Z,99811.54
2018-12-07T10:02:15.997Z,99789.64
2018-12-07T10:04:45.244Z,99788.00
2018-12-07T10:07:14.446Z,99785.92
2018-12-07T10:09:43.663Z,99773.32
2018-12-07T10:12:12.928Z,99775.19
2018-12-07T10:14:42.159Z,99769.16
2018-12-07T10:17:11.402Z,99763.42
2018-12-07T10:19:40.673Z,99758.02
2018-12-07T10:22:10.300Z,99757.10
2018-12-07T10:24:39.476Z,99748.20
2018-12-07T10:27:09.565Z,99743.52
2018-12-07T10:29:38.921Z,99731.95
2018-12-07T10:32:08.400Z,99723.38
2018-12-07T10:34:37.561Z,99719.19
2018-12-07T10:37:06.755Z,99714.10
2018-12-07T10:39:35.956Z,99720.08
2018-12-07T10:42:05.199Z,99718.31
2018-12-07T10:44:34.438Z,99720.69
2018-12-07T10:47:04.064Z,99722.64
2018-12-07T10:49:33.378Z,99719.36
2018-12-07T10:52:02.537Z,99719.05
2018-12-07T10:54:31.839Z,99707.12
2018-12-07T10:57:01.046Z,99709.92
2018-12-07T10:59:30.359Z,99699.19
2018-12-07T11:02:06.678Z,99695.09
2018-12-07T11:04:42.653Z,99692.92
2018-12-07T11:07:18.947Z,99683.38
2018-12-07T11:09:54.358Z,99683.89
2018-12-07T11:12:29.625Z,99673.05
2018-12-07T11:15:04.043Z,99661.70
2018-12-07T11:17:38.604Z,99657.56
2018-12-07T11:20:13.013Z,99652.23
2018-12-07T11:22:47.387Z,99667.40
2018-12-07T11:25:21.758Z,99660.88
2018-12-07T11:27:56.177Z,99649.62
2018-12-07T11:30:28.589Z,99636.70
2018-12-07T11:33:03.146Z,99634.47
2018-12-07T11:35:34.463Z,99619.94
2018-12-07T11:38:03.655Z,99617.70
2018-12-07T11:40:32.913Z,99601.95
2018-12-07T11:43:02.142Z,99581.80
2018-12-07T11:45:31.447Z,99587.67
2018-12-07T11:48:00.649Z,99580.98
2018-12-07T11:50:30.005Z,99572.86
2018-12-07T11:52:59.264Z,99569.41
2018-12-07T11:55:28.583Z,99562.89
2018-12-07T11:57:57.850Z,99558.45
2018-12-07T12:00:27.425Z,99544.63
2018-12-07T12:02:56.727Z,99546.00
2018-12-07T12:05:26.000Z,99538.14
2018-12-07T12:07:55.269Z,99537.63
2018-12-07T12:10:24.573Z,99529.53
2018-12-07T12:12:54.692Z,99527.48
2018-12-07T12:15:23.914Z,99511.96
2018-12-07T12:17:53.081Z,99501.52
2018-12-07T12:20:22.334Z,99498.23
2018-12-07T12:22:52.092Z,99495.47
2018-12-07T12:25:21.351Z,99497.25
2018-12-07T12:27:50.628Z,99496.89
2018-12-07T12:30:19.869Z,99489.33
2018-12-07T12:32:49.110Z,99480.45
2018-12-07T12:35:18.343Z,99478.39
2018-12-07T12:37:48.248Z,99470.03
2018-12-07T12:40:17.475Z,99466.01
2018-12-07T12:42:46.682Z,99469.91
2018-12-07T12:45:15.902Z,99448.55
2018-12-07T12:47:45.134Z,99449.83
2018-12-07T12:50:19.398Z,99447.66
2018-12-07T12:52:48.646Z,99444.30
2018-12-07T12:55:17.904Z,99439.81
2018-12-07T12:57:47.095Z,99433.84
2018-12-07T13:00:16.408Z,99430.42
2018-12-07T13:02:46.431Z,99422.99
2018-12-07T13:05:17.994Z,99407.99
2018-12-07T13:07:47.217Z,99410.53
2018-12-07T13:10:16.397Z,99405.33
2018-12-07T13:12:45.655Z,99390.19
2018-12-07T13:15:14.862Z,99397.42
2018-12-07T13:17:44.228Z,99383.39
2018-12-07T13:20:14.306Z,99382.66
2018-12-07T13:22:43.620Z,99373.00
2018-12-07T13:25:13.258Z,99368.03
2018-12-07T13:27:42.464Z,99351.97
2018-12-07T13:30:12.440Z,99358.05
2018-12-07T13:32:41.698Z,99353.26
2018-12-07T13:35:11.500Z,99334.09
2018-12-07T13:37:40.811Z,99345.73
2018-12-07T13:40:12.490Z,99335.19
2018-12-07T13:42:41.585Z,99334.26
2018-12-07T13:45:11.640Z,99334.27
2018-12-07T13:47:41.010Z,99325.31
2018-12-07T13:50:15.613Z,99316.44
2018-12-07T13:52:44.983Z,99311.75
2018-12-07T13:55:14.402Z,99303.33
2018-12-07T13:57:43.589Z,99293.38
2018-12-07T14:00:13.114Z,99287.53
2018-12-07T14:02:42.473Z,99285.51
2018-12-07T14:05:12.149Z,99267.70
2018-12-07T14:07:41.434Z,99273.44
2018-12-07T14:10:11.543Z,99286.33
2018-12-07T14:12:40.872Z,99277.09
2018-12-07T14:15:10.430Z,99269.38
2018-12-07T14:17:39.960Z,99269.45
2018-12-07T14:20:10.439Z,99253.05
2018-12-07T14:22:39.673Z,99257.01
2018-12-07T14:25:09.471Z,99247.69
2018-12-07T14:27:38.880Z,99242.22
2018-12-07T14:30:11.103Z,99248.33
2018-12-07T14:32:40.443Z,99241.13
2018-12-07T14:35:10.331Z,99236.44
2018-12-07T14:37:39.617Z,99212.59
2018-12-07T14:40:09.154Z,99213.78
2018-12-07T14:42:38.448Z,99208.64
2018-12-07T14:45:09.604Z,99202.89
2018-12-07T14:47:38.785Z,99195.89
2018-12-07T14:50:08.386Z,99197.45
2018-12-07T14:52:38.180Z,99198.07
2018-12-07T15:00:35.677Z,99193.61
2018-12-07T15:03:04.920Z,99197.23
2018-12-07T15:05:34.396Z,99198.50
2018-12-07T15:08:03.596Z,99186.65
2018-12-07T15:10:32.765Z,99177.55
2018-12-07T15:13:01.956Z,99177.78
2018-12-07T15:15:31.396Z,99174.28
2018-12-07T15:18:00.513Z,99182.48
2018-12-07T15:20:30.160Z,99176.71
2018-12-07T15:22:59.348Z,99177.61
2018-12-07T15:25:28.277Z,99171.62
2018-12-07T15:27:57.661Z,99171.81
2018-12-07T15:30:26.881Z,99177.17
2018-12-07T15:32:56.578Z,99168.80
2018-12-07T15:35:26.006Z,99169.27
2018-12-07T15:37:54.956Z,99161.31
2018-12-07T15:40:24.244Z,99162.73
2018-12-07T15:42:53.581Z,99153.48
2018-12-07T15:45:23.002Z,99144.74
2018-12-07T15:47:52.103Z,99147.09
2018-12-07T15:50:25.077Z,99128.62
2018-12-07T15:52:50.683Z,99131.26
2018-12-07T15:55:20.272Z,99119.34
2018-12-07T15:57:49.460Z,99119.64
2018-12-07T16:00:18.773Z,99116.44
2018-12-07T16:02:48.061Z,99101.71
2018-12-07T16:05:17.475Z,99090.59
2018-12-07T16:07:46.720Z,99091.91
2018-12-07T16:10:16.578Z,99080.61
2018-12-07T16:12:46.074Z,99080.89
2018-12-07T16:15:16.138Z,99070.58
2018-12-07T16:17:45.256Z,99072.11
2018-12-07T16:20:17.624Z,99070.59
2018-12-07T16:22:48.024Z,99057.30
2018-12-07T16:25:17.910Z,99058.79
2018-12-07T16:27:47.198Z,99051.41
2018-12-07T16:30:17.263Z,99036.41
2018-12-07T16:32:46.650Z,99039.38
2018-12-07T16:35:17.312Z,99030.70
2018-12-07T16:37:46.668Z,99035.16
2018-12-07T16:40:16.655Z,99022.74
2018-12-07T16:42:45.902Z,99022.81
2018-12-07T16:45:16.066Z,99018.73
2018-12-07T16:47:45.405Z,99019.38
2018-12-07T16:50:15.575Z,99018.28
2018-12-07T16:52:45.270Z,99014.92
2018-12-07T16:55:15.428Z,99010.37
2018-12-07T16:57:44.855Z,98999.44
2018-12-07T17:00:14.592Z,98990.48
2018-12-07T17:02:43.974Z,98987.00
2018-12-07T17:05:15.096Z,98982.52
2018-12-07T17:07:44.522Z,98977.02
2018-12-07T17:10:14.276Z,98974.01
2018-12-07T17:12:43.655Z,98970.58
2018-12-07T17:15:13.710Z,98968.95
2018-12-07T17:17:43.370Z,98953.59
2018-12-07T17:20:12.813Z,98951.37
2018-12-07T17:22:44.141Z,98951.02
2018-12-07T17:25:14.157Z,98939.08
2018-12-07T17:27:43.227Z,98936.49
2018-12-07T17:30:12.581Z,98930.44
2018-12-07T17:32:41.810Z,98921.76
2018-12-07T17:35:11.079Z,98915.56
2018-12-07T17:37:40.294Z,98912.91
2018-12-07T17:40:09.554Z,98907.17
2018-12-07T17:42:38.974Z,98907.25
2018-12-07T17:45:08.271Z,98901.75
2018-12-07T17:47:37.517Z,98905.64
2018-12-07T17:50:07.424Z,98900.53
2018-12-07T17:52:36.562Z,98902.77
2018-12-07T17:55:06.035Z,98895.11
2018-12-07T17:57:35.236Z,98891.14
2018-12-07T18:00:04.783Z,98888.19
2018-12-07T18:02:33.997Z,98887.94
2018-12-07T18:05:03.453Z,98879.64
2018-12-07T18:07:32.577Z,98874.42
2018-12-07T18:10:01.820Z,98882.16
2018-12-07T18:12:31.101Z,98875.70
2018-12-07T18:15:00.447Z,98877.77
2018-12-07T18:17:29.582Z,98872.64
2018-12-07T18:19:58.939Z,98862.81
2018-12-07T18:22:28.485Z,98859.77
2018-12-07T18:24:57.570Z,98852.94
2018-12-07T18:27:26.779Z,98848.16
2018-12-07T18:29:56.404Z,98844.59
2018-12-07T18:32:25.751Z,98834.22
2018-12-07T18:34:55.154Z,98832.41
2018-12-07T18:37:24.268Z,98830.44
2018-12-07T18:39:53.798Z,98823.69
2018-12-07T18:42:22.933Z,98816.31
2018-12-07T18:44:52.150Z,98817.05
2018-12-07T18:47:21.345Z,98819.72
2018-12-07T18:49:50.829Z,98803.36
2018-12-07T18:52:19.909Z,98801.64
2018-12-07T18:54:49.152Z,98789.37
2018-12-07T18:57:18.824Z,98788.72
2018-12-07T18:59:49.004Z,98788.94
2018-12-07T19:02:18.304Z,98782.83
2018-12-07T19:04:47.479Z,98781.66
2018-12-07T19:07:16.692Z,98780.62
2018-12-07T19:09:46.069Z,98785.59
2018-12-07T19:12:15.887Z,98784.34
2018-12-07T19:14:45.041Z,98796.89
2018-12-07T19:17:15.168Z,98784.25
2018-12-07T19:19:44.179Z,98781.94
2018-12-07T19:22:13.650Z,98783.80
2018-12-07T19:24:43.045Z,98775.17
2018-12-07T19:27:12.079Z,98783.34
2018-12-07T19:29:41.404Z,98775.10
2018-12-07T19:32:10.502Z,98774.65
2018-12-07T19:34:39.767Z,98794.80
2018-12-07T19:37:09.200Z,98788.00
2018-12-07T19:39:38.407Z,98784.51
2018-12-07T19:42:07.611Z,98807.05
2018-12-07T19:44:36.774Z,98831.16
2018-12-07T19:47:06.650Z,98817.83
2018-12-07T19:49:35.769Z,98841.42
2018-12-07T19:52:05.255Z,98838.75
2018-12-07T19:54:34.355Z,98837.70
2018-12-07T19:57:03.819Z,98866.89
2018-12-07T19:59:32.833Z,98881.04
2018-12-07T20:02:02.220Z,98898.76
2018-12-07T20:04:31.567Z,98899.77
2018-12-07T20:07:01.349Z,98908.95
2018-12-07T20:09:30.650Z,98932.84
2018-12-07T20:12:00.228Z,98944.97
2018-12-07T20:14:29.229Z,98958.02
2018-12-07T20:16:58.587Z,98978.05
2018-12-07T20:19:27.886Z,98979.44
2018-12-07T20:21:57.182Z,98990.60
2018-12-07T20:24:26.652Z,99009.23
2018-12-07T20:26:55.580Z,99010.87
2018-12-07T20:29:25.170Z,99010.05
2018-12-07T20:31:54.367Z,99017.75
2018-12-07T20:34:23.511Z,99024.38
2018-12-07T20:36:52.732Z,99038.02
2018-12-07T20:39:22.155Z,99022.84
2018-12-07T20:41:51.438Z,99039.66
2018-12-07T20:44:20.779Z,99064.16
2018-12-07T20:46:50.120Z,99087.52
2018-12-07T20:49:19.346Z,99110.69
2018-12-07T20:51:48.572Z,99126.27
2018-12-07T20:54:17.803Z,99124.98
2018-12-07T20:56:47.109Z,99135.09
2018-12-07T20:59:16.473Z,99137.73
2018-12-07T21:01:51.619Z,99150.48
2018-12-07T21:04:28.949Z,99155.14
2018-12-07T21:09:19.072Z,99157.17
2018-12-07T21:11:53.674Z,99167.41
2018-12-07T21:14:34.212Z,99177.50
2018-12-07T21:17:18.260Z,99177.50
2018-12-07T21:19:55.240Z,99195.20
2018-12-07T21:22:24.484Z,99199.61
2018-12-07T21:24:53.412Z,99211.69
2018-12-07T21:27:22.700Z,99224.24
2018-12-07T21:30:06.727Z,99232.06
2018-12-07T21:32:35.811Z,99245.02
2018-12-07T21:35:09.796Z,99255.32
2018-12-07T21:37:39.123Z,99251.61
2018-12-07T21:40:14.251Z,99260.88
2018-12-07T21:42:43.933Z,99272.20
2018-12-07T21:45:13.903Z,99273.12
2018-12-07T21:48:03.259Z,99283.31
2018-12-07T21:50:33.422Z,99289.80
2018-12-07T21:53:02.407Z,99292.77
2018-12-07T21:55:31.768Z,99308.52
2018-12-07T21:58:01.847Z,99320.64
2018-12-07T22:00:31.274Z,99316.94
2018-12-07T22:03:02.084Z,99323.76
2018-12-07T22:05:30.083Z,99329.83
2018-12-07T22:07:59.146Z,99326.50
2018-12-07T22:10:28.427Z,99340.53
2018-12-07T22:12:57.717Z,99345.53
2018-12-07T22:15:27.526Z,99342.98
2018-12-07T22:17:56.681Z,99351.36
2018-12-07T22:20:26.205Z,99361.58
2018-12-07T22:22:55.620Z,99370.30
2018-12-07T22:25:24.909Z,99385.44
2018-12-07T22:27:54.046Z,99379.31
2018-12-07T22:30:23.189Z,99387.26
2018-12-07T22:32:52.421Z,99396.27
2018-12-07T22:35:21.717Z,99401.55
2018-12-07T22:37:51.088Z,99406.59
2018-12-07T22:40:20.883Z,99408.52
2018-12-07T22:42:50.439Z,99408.84
2018-12-07T22:45:19.705Z,99406.23
2018-12-07T22:47:48.643Z,99419.33
2018-12-07T22:50:19.413Z,99413.41
2018-12-07T22:52:48.659Z,99414.87
2018-12-07T22:55:18.609Z,99416.86
2018-12-07T22:57:47.908Z,99415.39
2018-12-07T23:00:22.504Z,99415.66
2018-12-07T23:02:51.750Z,99408.88
2018-12-07T23:05:20.946Z,99405.94
2018-12-07T23:07:50.225Z,99421.94
2018-12-07T23:10:19.802Z,99430.22
2018-12-07T23:12:51.917Z,99437.75
2018-12-07T23:15:21.308Z,99437.31
2018-12-07T23:17:50.566Z,99446.07
2018-12-07T23:20:20.430Z,99445.08
2018-12-07T23:22:49.710Z,99447.59
2018-12-07T23:25:18.930Z,99441.07
2018-12-07T23:27:48.170Z,99437.73
2018-12-07T23:30:18.814Z,99445.41
2018-12-07T23:32:48.055Z,99441.05
2018-12-07T23:35:18.223Z,99438.88
2018-12-07T23:37:47.478Z,99439.53
2018-12-07T23:40:17.876Z,99444.39
2018-12-07T23:42:47.992Z,99440.78
2018-12-07T23:45:18.007Z,99443.22
2018-12-07T23:47:47.268Z,99445.09
2018-12-07T23:50:17.710Z,99440.66
2018-12-07T23:52:46.881Z,99452.87
2018-12-07T23:55:17.355Z,99459.60
2018-12-07T23:57:46.557Z,99467.05
